createdAt,value
2022-08-10T00:01:51.296Z,101095.19
2022-08-10T00:04:22.307Z,101097.13
2022-08-10T00:06:54.198Z,101092.84
2022-08-10T00:09:22.926Z,101089.91
2022-08-10T00:11:51.326Z,101093.00
2022-08-10T00:14:20.148Z,101086.38
2022-08-10T00:16:48.318Z,101083.94
2022-08-10T00:19:18.151Z,101085.97
2022-08-10T00:21:47.247Z,101091.19
2022-08-10T00:24:16.867Z,101086.75
2022-08-10T00:27:52.277Z,101083.56
2022-08-10T00:29:33.736Z,101090.91
2022-08-10T00:32:01.853Z,101082.31
2022-08-10T00:34:31.275Z,101079.78
2022-08-10T00:37:00.385Z,101077.31
2022-08-10T00:39:30.544Z,101085.69
2022-08-10T00:42:08.044Z,101085.06
2022-08-10T00:44:37.958Z,101088.06
2022-08-10T00:47:07.008Z,101087.28
2022-08-10T00:49:45.905Z,101086.69
2022-08-10T00:52:15.353Z,101087.50
2022-08-10T00:54:45.396Z,101078.69
2022-08-10T00:57:18.598Z,101085.91
2022-08-10T00:59:58.627Z,101084.50
2022-08-10T01:02:29.448Z,101075.97
2022-08-10T01:05:01.595Z,101078.69
2022-08-10T01:07:57.406Z,101073.19
2022-08-10T01:10:35.675Z,101078.56
2022-08-10T01:13:10.886Z,101076.25
2022-08-10T01:15:49.270Z,101077.28
2022-08-10T01:18:25.546Z,101069.44
2022-08-10T01:21:14.086Z,101067.00
2022-08-10T01:24:04.625Z,101074.31
2022-08-10T01:26:44.159Z,101075.78
2022-08-10T01:29:30.675Z,101069.09
2022-08-10T01:32:07.227Z,101073.78
2022-08-10T01:34:44.066Z,101058.13
2022-08-10T01:37:15.937Z,101063.34
2022-08-10T01:39:48.134Z,101066.03
2022-08-10T01:42:19.987Z,101065.19
2022-08-10T01:44:56.006Z,101058.91
2022-08-10T01:47:46.066Z,101056.59
2022-08-10T01:50:21.645Z,101060.16
2022-08-10T01:52:54.165Z,101055.94
2022-08-10T01:55:24.093Z,101062.28
2022-08-10T01:57:54.581Z,101062.69
2022-08-10T02:00:26.516Z,101058.75
2022-08-10T02:02:56.769Z,101059.09
2022-08-10T02:05:29.507Z,101054.00
2022-08-10T02:08:00.705Z,101061.78
2022-08-10T02:10:30.484Z,101058.13
2022-08-10T02:12:59.472Z,101058.94
2022-08-10T02:15:33.670Z,101059.59
2022-08-10T02:18:05.077Z,101065.03
2022-08-10T02:20:37.858Z,101063.31
2022-08-10T02:23:09.604Z,101065.06
2022-08-10T02:25:41.156Z,101063.13
2022-08-10T02:28:29.343Z,101066.78
2022-08-10T02:31:06.430Z,101064.66
2022-08-10T02:33:38.171Z,101064.75
2022-08-10T02:36:08.930Z,101068.31
2022-08-10T02:38:59.391Z,101062.16
2022-08-10T02:45:03.127Z,101071.41
2022-08-10T02:45:20.242Z,101070.94
2022-08-10T02:47:23.503Z,101073.59
2022-08-10T02:50:00.665Z,101070.03
2022-08-10T02:52:37.100Z,101071.09
2022-08-10T02:55:18.262Z,101063.44
2022-08-10T02:58:13.861Z,101062.84
2022-08-10T03:00:45.335Z,101065.66
2022-08-10T03:03:20.954Z,101061.34
2022-08-10T03:05:52.236Z,101063.91
2022-08-10T03:08:24.075Z,101062.09
2022-08-10T03:10:53.994Z,101059.59
2022-08-10T03:13:25.184Z,101060.47
2022-08-10T03:15:54.106Z,101062.34
2022-08-10T03:18:25.654Z,101066.81
2022-08-10T03:20:56.085Z,101057.34
2022-08-10T03:23:26.616Z,101062.66
2022-08-10T03:25:58.648Z,101065.97
2022-08-10T03:28:29.194Z,101063.31
2022-08-10T03:31:00.862Z,101065.25
2022-08-10T03:33:34.369Z,101062.00
2022-08-10T03:36:41.484Z,101054.31
2022-08-10T03:38:52.535Z,101068.56
2022-08-10T03:41:27.180Z,101059.00
2022-08-10T03:43:59.875Z,101057.34
2022-08-10T03:46:30.574Z,101057.44
2022-08-10T03:49:04.379Z,101058.41
2022-08-10T03:51:34.404Z,101060.22
2022-08-10T03:54:07.241Z,101056.66
2022-08-10T03:56:38.460Z,101064.63
2022-08-10T03:59:08.035Z,101065.63
2022-08-10T04:02:43.349Z,101058.78
2022-08-10T04:04:26.396Z,101053.56
2022-08-10T04:06:56.308Z,101052.66
2022-08-10T04:09:42.980Z,101059.69
2022-08-10T04:12:15.642Z,101055.31
2022-08-10T04:14:49.368Z,101056.38
2022-08-10T04:17:57.502Z,101062.59
2022-08-10T04:20:17.957Z,101062.66
2022-08-10T04:22:48.325Z,101057.63
2022-08-10T04:25:17.808Z,101064.88
2022-08-10T04:27:47.635Z,101066.78
2022-08-10T04:30:16.117Z,101069.53
2022-08-10T04:32:46.862Z,101060.81
2022-08-10T04:35:18.375Z,101071.31
2022-08-10T04:37:49.244Z,101070.31
2022-08-10T04:40:25.352Z,101075.41
2022-08-10T04:43:02.137Z,101075.41
2022-08-10T04:45:48.328Z,101074.63
2022-08-10T04:48:42.451Z,101078.34
2022-08-10T04:51:10.981Z,101081.16
2022-08-10T04:54:02.773Z,101066.25
2022-08-10T04:56:32.433Z,101068.88
2022-08-10T04:59:00.875Z,101065.34
2022-08-10T05:02:22.508Z,101064.44
2022-08-10T05:04:34.462Z,101066.91
2022-08-10T05:07:09.745Z,101060.47
2022-08-10T05:10:04.991Z,101056.88
2022-08-10T05:12:27.458Z,101056.94
2022-08-10T05:14:56.259Z,101061.41
2022-08-10T05:17:25.015Z,101058.88
2022-08-10T05:20:03.915Z,101059.69
2022-08-10T05:22:36.969Z,101059.59
2022-08-10T05:25:07.280Z,101053.44
2022-08-10T05:27:36.073Z,101051.47
2022-08-10T05:30:05.214Z,101050.38
2022-08-10T05:32:56.813Z,101060.78
2022-08-10T05:35:22.374Z,101058.91
2022-08-10T05:38:09.660Z,101063.22
2022-08-10T05:40:47.429Z,101068.31
2022-08-10T05:43:19.157Z,101070.66
2022-08-10T05:46:17.287Z,101070.47
2022-08-10T05:48:56.894Z,101065.88
2022-08-10T05:51:26.956Z,101075.31
2022-08-10T05:54:01.894Z,101076.00
2022-08-10T05:56:56.422Z,101081.88
2022-08-10T06:00:32.385Z,101080.72
2022-08-10T06:02:30.722Z,101091.06
2022-08-10T06:05:06.516Z,101089.88
2022-08-10T06:07:38.574Z,101078.09
2022-08-10T06:10:12.471Z,101082.16
2022-08-10T06:12:54.919Z,101083.53
2022-08-10T06:15:51.866Z,101088.47
2022-08-10T06:18:15.495Z,101088.19
2022-08-10T06:20:44.617Z,101080.91
2022-08-10T06:23:13.804Z,101071.91
2022-08-10T06:26:11.422Z,101079.47
2022-08-10T06:28:37.755Z,101069.59
2022-08-10T06:31:07.784Z,101074.59
2022-08-10T06:33:39.283Z,101074.19
2022-08-10T06:36:09.385Z,101072.06
2022-08-10T06:38:40.084Z,101076.03
2022-08-10T06:41:19.957Z,101074.72
2022-08-10T06:43:57.254Z,101079.59
2022-08-10T06:46:27.814Z,101075.75
2022-08-10T06:49:00.412Z,101068.25
2022-08-10T06:51:32.484Z,101067.88
2022-08-10T06:54:04.378Z,101067.44
2022-08-10T06:56:50.838Z,101059.88
2022-08-10T06:59:36.982Z,101062.84
2022-08-10T07:02:08.746Z,101066.06
2022-08-10T07:04:43.496Z,101071.72
2022-08-10T07:07:18.496Z,101074.47
2022-08-10T07:09:49.215Z,101073.25
2022-08-10T07:12:21.295Z,101075.66
2022-08-10T07:14:52.355Z,101066.59
2022-08-10T07:17:22.674Z,101074.28
2022-08-10T07:19:55.494Z,101067.16
2022-08-10T07:23:08.669Z,101068.69
2022-08-10T07:25:21.105Z,101071.00
2022-08-10T07:27:58.576Z,101073.09
2022-08-10T07:30:31.619Z,101066.09
2022-08-10T07:33:01.842Z,101056.63
2022-08-10T07:35:41.567Z,101054.22
2022-08-10T07:38:14.582Z,101057.94
2022-08-10T07:40:45.097Z,101062.69
2022-08-10T07:43:17.215Z,101053.59
2022-08-10T07:45:47.799Z,101055.03
2022-08-10T07:48:18.172Z,101054.50
2022-08-10T07:50:48.084Z,101049.50
2022-08-10T07:53:22.944Z,101054.81
2022-08-10T07:56:04.512Z,101048.75
2022-08-10T07:58:52.455Z,101047.09
2022-08-10T08:01:25.162Z,101058.06
2022-08-10T08:04:11.424Z,101053.72
2022-08-10T08:06:42.680Z,101058.59
2022-08-10T08:09:11.978Z,101058.19
2022-08-10T08:11:42.677Z,101058.78
2022-08-10T08:14:15.324Z,101064.25
2022-08-10T08:16:47.244Z,101058.00
2022-08-10T08:19:37.677Z,101062.16
2022-08-10T08:24:05.335Z,101062.88
2022-08-10T08:24:57.305Z,101062.19
2022-08-10T08:27:27.306Z,101059.22
2022-08-10T08:29:57.214Z,101063.44
2022-08-10T08:32:27.847Z,101061.75
2022-08-10T08:34:59.847Z,101059.47
2022-08-10T08:38:33.989Z,101061.88
2022-08-10T08:40:25.605Z,101059.56
2022-08-10T08:43:10.075Z,101048.44
2022-08-10T08:46:00.876Z,101040.84
2022-08-10T08:48:47.736Z,101037.59
2022-08-10T08:52:12.441Z,101029.84
2022-08-10T08:54:28.285Z,101031.13
2022-08-10T08:57:04.886Z,101031.19
2022-08-10T08:59:51.897Z,101022.16
2022-08-10T09:02:34.950Z,101022.81
2022-08-10T09:05:15.794Z,101014.22
2022-08-10T09:08:03.667Z,101017.97
2022-08-10T09:10:43.686Z,101016.94
2022-08-10T09:13:26.740Z,101015.38
2022-08-10T09:16:07.124Z,100999.97
2022-08-10T09:18:46.755Z,101014.91
2022-08-10T09:21:22.045Z,101003.63
2022-08-10T09:24:04.285Z,101003.69
2022-08-10T09:26:46.835Z,100998.31
2022-08-10T09:29:25.336Z,100993.91
2022-08-10T09:36:16.445Z,100991.31
2022-08-10T09:36:25.147Z,100990.13
2022-08-10T09:38:04.183Z,100990.56
2022-08-10T09:40:59.814Z,100986.97
2022-08-10T09:43:43.802Z,100984.25
2022-08-10T09:46:27.307Z,100987.69
2022-08-10T09:49:05.024Z,100975.25
2022-08-10T09:51:46.875Z,100978.19
2022-08-10T09:54:29.785Z,100974.22
2022-08-10T10:00:08.896Z,100975.09
2022-08-10T10:02:44.184Z,100972.44
2022-08-10T10:05:22.814Z,100980.31
2022-08-10T10:07:59.965Z,100973.50
2022-08-10T10:10:33.895Z,100968.69
2022-08-10T10:13:07.174Z,100963.75
2022-08-10T10:15:43.066Z,100960.59
2022-08-10T10:18:21.133Z,100967.66
2022-08-10T10:20:56.846Z,100961.44
2022-08-10T10:23:41.677Z,100952.13
2022-08-10T10:26:20.630Z,100956.41
2022-08-10T10:29:44.738Z,100939.63
2022-08-10T10:31:58.927Z,100945.88
2022-08-10T10:34:38.747Z,100950.53
2022-08-10T10:37:08.644Z,100943.34
2022-08-10T10:39:43.450Z,100938.09
2022-08-10T10:42:44.418Z,100934.94
2022-08-10T10:45:19.394Z,100936.38
2022-08-10T10:48:00.696Z,100933.97
2022-08-10T10:50:39.884Z,100939.25
2022-08-10T10:53:15.336Z,100926.94
2022-08-10T10:56:14.312Z,100938.63
2022-08-10T10:58:50.282Z,100920.81
2022-08-10T11:01:36.171Z,100928.00
2022-08-10T11:04:17.202Z,100920.91
2022-08-10T11:06:53.833Z,100922.00
2022-08-10T11:10:09.489Z,100915.97
2022-08-10T11:12:26.194Z,100922.53
2022-08-10T11:15:03.835Z,100907.25
2022-08-10T11:17:40.062Z,100912.06
2022-08-10T11:20:15.979Z,100914.38
2022-08-10T11:22:54.044Z,100906.94
2022-08-10T11:25:29.932Z,100894.72
2022-08-10T11:28:05.074Z,100904.41
2022-08-10T11:30:43.184Z,100914.75
2022-08-10T11:33:30.953Z,100903.53
2022-08-10T11:36:04.994Z,100904.09
2022-08-10T11:38:57.540Z,100907.97
2022-08-10T11:42:11.442Z,100902.59
2022-08-10T11:44:34.777Z,100903.34
2022-08-10T11:47:09.313Z,100894.09
2022-08-10T11:49:45.084Z,100898.28
2022-08-10T11:52:20.864Z,100884.66
2022-08-10T11:54:55.058Z,100888.59
2022-08-10T11:57:26.414Z,100896.69
2022-08-10T12:00:16.625Z,100890.50
2022-08-10T12:02:48.977Z,100884.16
2022-08-10T12:05:21.312Z,100881.00
2022-08-10T12:10:01.723Z,100885.25
2022-08-10T12:10:44.782Z,100877.75
2022-08-10T12:13:18.305Z,100880.66
2022-08-10T12:16:01.005Z,100867.22
2022-08-10T12:18:37.594Z,100864.94
2022-08-10T12:21:16.335Z,100860.81
2022-08-10T12:24:03.144Z,100865.91
2022-08-10T12:26:39.103Z,100874.00
2022-08-10T12:29:15.752Z,100863.09
2022-08-10T12:31:58.465Z,100866.59
2022-08-10T12:34:33.535Z,100863.59
2022-08-10T12:37:08.824Z,100855.47
2022-08-10T12:39:44.796Z,100857.66
2022-08-10T12:42:38.953Z,100854.47
2022-08-10T12:45:15.834Z,100846.94
2022-08-10T12:47:59.018Z,100844.13
2022-08-10T12:50:35.814Z,100849.66
2022-08-10T12:53:10.945Z,100838.13
2022-08-10T12:55:40.123Z,100834.63
2022-08-10T12:58:57.525Z,100829.94
2022-08-10T13:01:16.296Z,100832.34
2022-08-10T13:04:22.685Z,100834.25
2022-08-10T13:06:46.211Z,100835.69
2022-08-10T13:09:18.304Z,100828.88
2022-08-10T13:12:39.329Z,100812.66
2022-08-10T13:14:51.875Z,100819.03
2022-08-10T13:17:40.162Z,100819.44
2022-08-10T13:20:20.756Z,100807.44
2022-08-10T13:22:51.057Z,100797.59
2022-08-10T13:25:27.144Z,100796.56
2022-08-10T13:28:01.068Z,100801.16
2022-08-10T13:30:50.880Z,100788.25
2022-08-10T13:34:40.599Z,100783.88
2022-08-10T13:36:11.222Z,100779.94
2022-08-10T13:38:43.919Z,100783.00
2022-08-10T13:41:12.934Z,100779.94
2022-08-10T13:43:52.522Z,100772.06
2022-08-10T13:46:23.478Z,100775.09
2022-08-10T13:48:53.456Z,100766.34
2022-08-10T13:51:57.069Z,100768.31
2022-08-10T13:54:16.953Z,100765.13
2022-08-10T13:56:48.727Z,100764.66
2022-08-10T13:59:18.925Z,100760.06
2022-08-10T14:01:50.594Z,100755.50
2022-08-10T14:04:20.433Z,100753.63
2022-08-10T14:06:56.023Z,100762.41
2022-08-10T14:09:29.655Z,100754.03
2022-08-10T14:11:59.554Z,100758.50
2022-08-10T14:14:30.414Z,100750.94
2022-08-10T14:17:22.143Z,100752.09
2022-08-10T14:19:58.805Z,100743.28
2022-08-10T14:22:33.614Z,100738.84
2022-08-10T14:25:07.534Z,100745.28
2022-08-10T14:28:02.368Z,100740.81
2022-08-10T14:30:30.981Z,100739.69
2022-08-10T14:33:04.646Z,100734.34
2022-08-10T14:36:20.313Z,100742.88
2022-08-10T14:38:30.066Z,100729.25
2022-08-10T14:41:01.477Z,100727.50
2022-08-10T14:43:40.350Z,100724.19
2022-08-10T14:46:11.283Z,100718.66
2022-08-10T14:48:42.094Z,100717.91
2022-08-10T14:51:12.774Z,100721.78
2022-08-10T14:53:50.892Z,100721.59
2022-08-10T14:56:26.552Z,100717.66
2022-08-10T14:59:06.072Z,100716.31
2022-08-10T15:01:59.774Z,100714.84
2022-08-10T15:04:29.210Z,100705.50
2022-08-10T15:07:04.194Z,100705.16
2022-08-10T15:09:59.418Z,100700.56
2022-08-10T15:12:34.807Z,100691.44
2022-08-10T15:15:05.863Z,100689.88
2022-08-10T15:17:37.414Z,100692.84
2022-08-10T15:20:14.891Z,100683.03
2022-08-10T15:22:50.469Z,100685.91
2022-08-10T15:25:24.809Z,100678.03
2022-08-10T15:27:58.035Z,100677.22
2022-08-10T15:30:42.540Z,100674.41
2022-08-10T15:34:02.789Z,100673.59
2022-08-10T15:36:39.060Z,100667.66
2022-08-10T15:39:16.528Z,100668.19
2022-08-10T15:42:05.954Z,100667.56
2022-08-10T15:44:39.314Z,100660.47
2022-08-10T15:47:12.224Z,100661.25
2022-08-10T15:49:51.881Z,100649.03
2022-08-10T15:52:39.491Z,100655.09
2022-08-10T15:55:43.376Z,100648.00
2022-08-10T15:58:13.996Z,100636.31
2022-08-10T16:00:50.931Z,100638.94
2022-08-10T16:03:26.564Z,100642.19
2022-08-10T16:06:02.510Z,100650.81
2022-08-10T16:08:57.043Z,100644.72
2022-08-10T16:11:38.247Z,100636.44
2022-08-10T16:14:14.037Z,100624.31
2022-08-10T16:16:45.216Z,100630.91
2022-08-10T16:19:23.926Z,100625.53
2022-08-10T16:22:01.089Z,100621.44
2022-08-10T16:24:33.831Z,100623.00
2022-08-10T16:27:06.543Z,100612.41
2022-08-10T16:29:55.877Z,100613.63
2022-08-10T16:32:27.165Z,100619.66
2022-08-10T16:34:57.696Z,100614.16
2022-08-10T16:37:57.185Z,100618.34
2022-08-10T16:40:26.233Z,100618.34
2022-08-10T16:42:55.355Z,100616.41
2022-08-10T16:45:31.674Z,100619.00
2022-08-10T16:48:02.158Z,100614.44
2022-08-10T16:50:33.417Z,100605.31
2022-08-10T16:53:03.603Z,100603.50
2022-08-10T16:55:48.021Z,100599.34
2022-08-10T16:58:20.692Z,100592.34
2022-08-10T17:00:52.156Z,100596.00
2022-08-10T17:04:06.512Z,100592.06
2022-08-10T17:06:22.075Z,100612.50
2022-08-10T17:08:54.278Z,100602.63
2022-08-10T17:11:28.661Z,100610.16
2022-08-10T17:13:58.842Z,100606.94
2022-08-10T17:16:35.631Z,100601.66
2022-08-10T17:19:08.474Z,100600.13
2022-08-10T17:21:40.942Z,100597.00
2022-08-10T17:24:24.164Z,100609.00
2022-08-10T17:26:53.034Z,100600.34
2022-08-10T17:29:57.969Z,100604.00
2022-08-10T17:32:21.753Z,100592.84
2022-08-10T17:34:57.220Z,100600.03
2022-08-10T17:37:28.684Z,100597.56
2022-08-10T17:40:03.244Z,100589.13
2022-08-10T17:42:32.503Z,100588.88
2022-08-10T17:45:02.284Z,100590.16
2022-08-10T17:47:33.437Z,100592.03
2022-08-10T17:50:02.764Z,100590.94
2022-08-10T17:52:34.195Z,100586.34
2022-08-10T17:55:06.706Z,100587.22
2022-08-10T17:57:38.332Z,100584.53
2022-08-10T18:00:14.339Z,100589.78
2022-08-10T18:02:46.208Z,100593.50
2022-08-10T18:05:34.328Z,100587.25
2022-08-10T18:08:11.957Z,100588.19
2022-08-10T18:10:40.513Z,100580.69
2022-08-10T18:13:10.244Z,100573.84
2022-08-10T18:15:43.644Z,100584.88
2022-08-10T18:18:20.865Z,100576.91
2022-08-10T18:20:52.045Z,100582.84
2022-08-10T18:23:27.523Z,100584.81
2022-08-10T18:26:02.005Z,100582.31
2022-08-10T18:28:32.104Z,100578.88
2022-08-10T18:31:02.390Z,100578.94
2022-08-10T18:33:36.014Z,100572.69
2022-08-10T18:36:07.924Z,100567.38
2022-08-10T18:38:39.595Z,100570.00
2022-08-10T18:41:12.308Z,100577.63
2022-08-10T18:44:06.135Z,100577.28
2022-08-10T18:46:39.584Z,100579.16
2022-08-10T18:49:12.402Z,100583.53
2022-08-10T18:51:46.552Z,100586.81
2022-08-10T18:54:39.797Z,100582.09
2022-08-10T18:57:18.714Z,100588.97
2022-08-10T19:00:03.918Z,100590.94
2022-08-10T19:02:52.208Z,100589.25
2022-08-10T19:05:36.664Z,100597.31
2022-08-10T19:08:30.626Z,100590.91
2022-08-10T19:11:06.807Z,100602.25
2022-08-10T19:13:50.945Z,100598.91
2022-08-10T19:16:27.222Z,100605.44
2022-08-10T19:19:16.368Z,100611.69
2022-08-10T19:22:03.245Z,100604.06
2022-08-10T19:24:44.806Z,100611.09
2022-08-10T19:27:23.074Z,100613.00
2022-08-10T19:30:09.162Z,100605.94
2022-08-10T19:33:00.787Z,100607.19
2022-08-10T19:36:03.989Z,100614.84
2022-08-10T19:38:38.134Z,100614.97
2022-08-10T19:41:32.145Z,100624.28
2022-08-10T19:44:07.435Z,100621.94
2022-08-10T19:46:42.176Z,100618.16
2022-08-10T19:49:19.845Z,100617.88
2022-08-10T19:51:56.654Z,100614.38
2022-08-10T19:54:37.233Z,100619.16
2022-08-10T19:57:12.994Z,100621.78
2022-08-10T20:00:16.426Z,100623.38
2022-08-10T20:02:51.651Z,100621.72
2022-08-10T20:05:31.256Z,100615.63
2022-08-10T20:08:07.349Z,100621.31
2022-08-10T20:10:46.571Z,100621.72
2022-08-10T20:13:22.521Z,100615.19
2022-08-10T20:15:59.137Z,100619.16
2022-08-10T20:18:33.965Z,100619.06
2022-08-10T20:21:12.805Z,100623.03
2022-08-10T20:23:55.652Z,100619.16
2022-08-10T20:26:26.436Z,100621.75
2022-08-10T20:29:06.916Z,100627.78
2022-08-10T20:31:42.473Z,100631.63
2022-08-10T20:34:20.525Z,100625.31
2022-08-10T20:36:57.997Z,100622.41
2022-08-10T20:39:38.224Z,100626.00
2022-08-10T20:42:17.006Z,100627.38
2022-08-10T20:44:53.712Z,100626.69
2022-08-10T20:47:36.131Z,100629.75
2022-08-10T20:50:18.205Z,100635.31
2022-08-10T20:52:50.988Z,100635.72
2022-08-10T20:55:21.294Z,100635.97
2022-08-10T20:58:07.240Z,100636.50
2022-08-10T21:00:48.366Z,100634.97
2022-08-10T21:03:33.802Z,100632.63
2022-08-10T21:06:31.670Z,100636.22
2022-08-10T21:09:21.046Z,100635.81
2022-08-10T21:12:05.354Z,100632.53
2022-08-10T21:14:44.935Z,100638.56
2022-08-10T21:17:31.760Z,100630.69
2022-08-10T21:20:28.619Z,100630.81
2022-08-10T21:23:05.266Z,100631.28
2022-08-10T21:25:44.823Z,100628.00
2022-08-10T21:28:34.536Z,100629.16
2022-08-10T21:31:25.604Z,100631.69
2022-08-10T21:34:10.366Z,100630.56
2022-08-10T21:36:44.077Z,100631.03
2022-08-10T21:39:20.126Z,100622.22
2022-08-10T21:42:14.930Z,100621.38
2022-08-10T21:45:16.698Z,100624.03
2022-08-10T21:48:17.458Z,100625.72
2022-08-10T21:51:16.624Z,100634.72
2022-08-10T21:54:25.927Z,100633.66
2022-08-10T21:57:21.675Z,100636.13
2022-08-10T22:00:15.555Z,100640.00
2022-08-10T22:03:03.145Z,100637.94
2022-08-10T22:05:57.284Z,100643.53
2022-08-10T22:08:50.705Z,100649.41
2022-08-10T22:11:38.785Z,100647.47
2022-08-10T22:14:33.718Z,100636.88
2022-08-10T22:17:59.557Z,100637.81
2022-08-10T22:20:35.535Z,100654.94
2022-08-10T22:23:42.525Z,100652.41
2022-08-10T22:26:33.523Z,100657.19
2022-08-10T22:29:26.087Z,100647.03
2022-08-10T22:32:40.533Z,100647.31
2022-08-10T22:35:54.286Z,100650.16
2022-08-10T22:39:02.185Z,100654.81
2022-08-10T22:42:02.307Z,100656.59
2022-08-10T22:44:52.358Z,100655.91
2022-08-10T22:47:40.175Z,100648.91
2022-08-10T22:50:10.306Z,100646.53
2022-08-10T22:53:01.910Z,100644.25
2022-08-10T22:55:57.195Z,100655.06
2022-08-10T22:58:39.955Z,100650.97
2022-08-10T23:01:14.272Z,100659.97
2022-08-10T23:03:52.669Z,100660.97
2022-08-10T23:06:27.403Z,100661.16
2022-08-10T23:09:05.115Z,100661.38
2022-08-10T23:11:40.402Z,100663.63
2022-08-10T23:14:13.074Z,100669.66
2022-08-10T23:17:02.735Z,100669.38
2022-08-10T23:19:32.604Z,100664.09
2022-08-10T23:22:07.388Z,100672.19
2022-08-10T23:24:39.154Z,100666.22
2022-08-10T23:27:37.584Z,100665.47
2022-08-10T23:30:09.777Z,100668.03
2022-08-10T23:32:44.154Z,100680.25
2022-08-10T23:36:30.008Z,100675.09
2022-08-10T23:38:04.905Z,100686.03
2022-08-10T23:40:34.692Z,100687.38
2022-08-10T23:43:06.567Z,100680.41
2022-08-10T23:45:53.955Z,100683.63
2022-08-10T23:48:26.088Z,100671.69
2022-08-10T23:50:59.564Z,100683.81
2022-08-10T23:53:31.844Z,100680.13
2022-08-10T23:56:03.085Z,100674.53
2022-08-10T23:58:43.125Z,100675.84
